sensor_id;sensor_type;location;lat;lon;timestamp;temperature;humidity
15615;DHT22;7907;51.368;6.730;2023-04-25T00:04:39;8.00;99.90
15615;DHT22;7907;51.368;6.730;2023-04-25T00:07:27;8.00;99.90
15615;DHT22;7907;51.368;6.730;2023-04-25T00:10:09;8.00;99.90
15615;DHT22;7907;51.368;6.730;2023-04-25T00:12:39;8.10;99.90
15615;DHT22;7907;51.368;6.730;2023-04-25T00:16:14;8.00;99.90
15615;DHT22;7907;51.368;6.730;2023-04-25T00:21:13;8.00;99.90
15615;DHT22;7907;51.368;6.730;2023-04-25T00:23:56;8.10;99.90
15615;DHT22;7907;51.368;6.730;2023-04-25T00:30:05;8.10;99.90
15615;DHT22;7907;51.368;6.730;2023-04-25T00:32:50;8.10;99.90
15615;DHT22;7907;51.368;6.730;2023-04-25T00:41:20;8.20;99.90
15615;DHT22;7907;51.368;6.730;2023-04-25T00:49:51;8.30;99.90
15615;DHT22;7907;51.368;6.730;2023-04-25T00:52:21;8.30;99.90
15615;DHT22;7907;51.368;6.730;2023-04-25T00:54:58;8.30;99.90
15615;DHT22;7907;51.368;6.730;2023-04-25T00:57:49;8.30;99.90
15615;DHT22;7907;51.368;6.730;2023-04-25T01:00:20;8.30;99.90
15615;DHT22;7907;51.368;6.730;2023-04-25T01:03:14;8.30;99.90
15615;DHT22;7907;51.368;6.730;2023-04-25T01:06:00;8.30;99.90
15615;DHT22;7907;51.368;6.730;2023-04-25T01:11:50;8.30;99.90
15615;DHT22;7907;51.368;6.730;2023-04-25T01:14:31;8.30;99.90
15615;DHT22;7907;51.368;6.730;2023-04-25T01:17:10;8.30;99.90
15615;DHT22;7907;51.368;6.730;2023-04-25T01:20:05;8.30;99.90
15615;DHT22;7907;51.368;6.730;2023-04-25T01:25:29;8.30;99.90
15615;DHT22;7907;51.368;6.730;2023-04-25T01:31:05;8.40;99.90
15615;DHT22;7907;51.368;6.730;2023-04-25T01:33:37;8.40;99.90
15615;DHT22;7907;51.368;6.730;2023-04-25T01:36:05;8.40;99.90
15615;DHT22;7907;51.368;6.730;2023-04-25T01:38:48;8.40;99.90
15615;DHT22;7907;51.368;6.730;2023-04-25T01:41:58;8.40;99.90
15615;DHT22;7907;51.368;6.730;2023-04-25T02:00:08;8.30;99.90
15615;DHT22;7907;51.368;6.730;2023-04-25T02:02:59;8.20;99.90
15615;DHT22;7907;51.368;6.730;2023-04-25T02:11:33;8.20;99.90
15615;DHT22;7907;51.368;6.730;2023-04-25T02:14:18;8.20;99.90
15615;DHT22;7907;51.368;6.730;2023-04-25T02:19:57;8.20;99.90
15615;DHT22;7907;51.368;6.730;2023-04-25T02:22:36;8.20;99.90
15615;DHT22;7907;51.368;6.730;2023-04-25T02:25:56;8.10;99.90
15615;DHT22;7907;51.368;6.730;2023-04-25T02:30:41;8.10;99.90
15615;DHT22;7907;51.368;6.730;2023-04-25T02:36:09;8.00;99.90
15615;DHT22;7907;51.368;6.730;2023-04-25T02:38:57;7.90;99.90
15615;DHT22;7907;51.368;6.730;2023-04-25T02:41:30;7.90;99.90
15615;DHT22;7907;51.368;6.730;2023-04-25T02:47:02;7.90;99.90
15615;DHT22;7907;51.368;6.730;2023-04-25T02:50:23;7.90;99.90
15615;DHT22;7907;51.368;6.730;2023-04-25T02:52:44;7.90;99.90
15615;DHT22;7907;51.368;6.730;2023-04-25T02:55:33;7.90;99.90
15615;DHT22;7907;51.368;6.730;2023-04-25T02:58:11;7.90;99.90
15615;DHT22;7907;51.368;6.730;2023-04-25T03:03:28;7.80;99.90
15615;DHT22;7907;51.368;6.730;2023-04-25T03:05:59;7.80;99.90
15615;DHT22;7907;51.368;6.730;2023-04-25T03:08:38;7.80;99.90
15615;DHT22;7907;51.368;6.730;2023-04-25T03:11:24;7.70;99.90
15615;DHT22;7907;51.368;6.730;2023-04-25T03:14:00;7.80;99.90
15615;DHT22;7907;51.368;6.730;2023-04-25T03:16:28;7.70;99.90
15615;DHT22;7907;51.368;6.730;2023-04-25T03:19:02;7.70;99.90
15615;DHT22;7907;51.368;6.730;2023-04-25T03:21:35;7.70;99.90
15615;DHT22;7907;51.368;6.730;2023-04-25T03:24:12;7.70;99.90
15615;DHT22;7907;51.368;6.730;2023-04-25T03:30:01;7.60;99.90
15615;DHT22;7907;51.368;6.730;2023-04-25T03:35:46;7.50;99.90
15615;DHT22;7907;51.368;6.730;2023-04-25T03:38:20;7.50;99.90
15615;DHT22;7907;51.368;6.730;2023-04-25T03:40:49;7.50;99.90
15615;DHT22;7907;51.368;6.730;2023-04-25T03:43:39;7.40;99.90
15615;DHT22;7907;51.368;6.730;2023-04-25T03:46:08;7.40;99.90
15615;DHT22;7907;51.368;6.730;2023-04-25T03:48:45;7.50;99.90
15615;DHT22;7907;51.368;6.730;2023-04-25T03:51:27;7.40;99.90
15615;DHT22;7907;51.368;6.730;2023-04-25T03:54:00;7.40;99.90
15615;DHT22;7907;51.368;6.730;2023-04-25T03:59:27;7.50;99.90
15615;DHT22;7907;51.368;6.730;2023-04-25T04:01:56;7.40;99.90
15615;DHT22;7907;51.368;6.730;2023-04-25T04:04:25;7.40;99.90
15615;DHT22;7907;51.368;6.730;2023-04-25T04:09:42;7.40;99.90
15615;DHT22;7907;51.368;6.730;2023-04-25T04:12:28;7.40;99.90
15615;DHT22;7907;51.368;6.730;2023-04-25T04:18:16;7.30;99.90
15615;DHT22;7907;51.368;6.730;2023-04-25T04:20:57;7.20;99.90
15615;DHT22;7907;51.368;6.730;2023-04-25T04:26:25;7.20;99.90
15615;DHT22;7907;51.368;6.730;2023-04-25T04:28:55;7.10;99.90
15615;DHT22;7907;51.368;6.730;2023-04-25T04:31:24;7.10;99.90
15615;DHT22;7907;51.368;6.730;2023-04-25T04:34:08;7.10;99.90
15615;DHT22;7907;51.368;6.730;2023-04-25T04:39:59;7.00;99.90
15615;DHT22;7907;51.368;6.730;2023-04-25T04:42:47;7.00;99.90
15615;DHT22;7907;51.368;6.730;2023-04-25T04:48:36;7.00;99.90
15615;DHT22;7907;51.368;6.730;2023-04-25T05:00:21;6.80;99.90
15615;DHT22;7907;51.368;6.730;2023-04-25T05:03:11;6.80;99.90
15615;DHT22;7907;51.368;6.730;2023-04-25T05:05:52;6.80;99.90
15615;DHT22;7907;51.368;6.730;2023-04-25T05:11:37;6.80;99.90
15615;DHT22;7907;51.368;6.730;2023-04-25T05:17:22;6.80;99.90
15615;DHT22;7907;51.368;6.730;2023-04-25T05:20:28;6.80;99.90
15615;DHT22;7907;51.368;6.730;2023-04-25T05:26:07;6.90;99.90
15615;DHT22;7907;51.368;6.730;2023-04-25T05:28:41;7.00;99.90
15615;DHT22;7907;51.368;6.730;2023-04-25T05:31:21;6.90;99.90
15615;DHT22;7907;51.368;6.730;2023-04-25T05:40:02;7.00;99.90
15615;DHT22;7907;51.368;6.730;2023-04-25T05:42:51;7.00;99.90
15615;DHT22;7907;51.368;6.730;2023-04-25T05:45:33;7.00;99.90
15615;DHT22;7907;51.368;6.730;2023-04-25T05:48:03;7.10;99.90
15615;DHT22;7907;51.368;6.730;2023-04-25T05:50:34;7.10;99.90
15615;DHT22;7907;51.368;6.730;2023-04-25T05:53:06;7.20;99.90
15615;DHT22;7907;51.368;6.730;2023-04-25T06:02:00;7.10;99.90
15615;DHT22;7907;51.368;6.730;2023-04-25T06:04:40;7.10;99.90
15615;DHT22;7907;51.368;6.730;2023-04-25T06:07:08;7.10;99.90
15615;DHT22;7907;51.368;6.730;2023-04-25T06:09:48;7.20;99.90
15615;DHT22;7907;51.368;6.730;2023-04-25T06:15:33;7.20;99.90
15615;DHT22;7907;51.368;6.730;2023-04-25T06:21:31;7.30;99.90
15615;DHT22;7907;51.368;6.730;2023-04-25T06:24:12;7.40;99.90
15615;DHT22;7907;51.368;6.730;2023-04-25T06:33:25;7.40;99.90
15615;DHT22;7907;51.368;6.730;2023-04-25T06:48:59;7.60;99.90
15615;DHT22;7907;51.368;6.730;2023-04-25T06:52:02;7.70;99.90
15615;DHT22;7907;51.368;6.730;2023-04-25T06:57:44;7.80;99.90
15615;DHT22;7907;51.368;6.730;2023-04-25T07:00:26;7.90;99.90
15615;DHT22;7907;51.368;6.730;2023-04-25T07:03:11;7.90;99.90
15615;DHT22;7907;51.368;6.730;2023-04-25T08:23:23;10.30;99.90
15615;DHT22;7907;51.368;6.730;2023-04-25T08:49:10;10.90;99.90
15615;DHT22;7907;51.368;6.730;2023-04-25T08:52:20;10.80;99.90
15615;DHT22;7907;51.368;6.730;2023-04-25T08:57:33;10.80;99.90
15615;DHT22;7907;51.368;6.730;2023-04-25T09:00:54;10.60;99.90
15615;DHT22;7907;51.368;6.730;2023-04-25T09:06:33;10.50;99.90
15615;DHT22;7907;51.368;6.730;2023-04-25T09:09:04;10.40;99.90
15615;DHT22;7907;51.368;6.730;2023-04-25T09:11:37;10.30;99.90
15615;DHT22;7907;51.368;6.730;2023-04-25T09:17:30;10.30;99.90
15615;DHT22;7907;51.368;6.730;2023-04-25T09:20:47;10.40;99.90
15615;DHT22;7907;51.368;6.730;2023-04-25T09:23:48;10.40;99.90
15615;DHT22;7907;51.368;6.730;2023-04-25T09:26:42;10.60;99.90
15615;DHT22;7907;51.368;6.730;2023-04-25T09:29:30;10.80;97.70
15615;DHT22;7907;51.368;6.730;2023-04-25T09:32:11;11.00;95.90
15615;DHT22;7907;51.368;6.730;2023-04-25T09:44:09;11.70;94.00
15615;DHT22;7907;51.368;6.730;2023-04-25T09:46:50;11.70;92.70
15615;DHT22;7907;51.368;6.730;2023-04-25T09:50:29;11.50;92.20
15615;DHT22;7907;51.368;6.730;2023-04-25T09:55:13;11.20;86.60
15615;DHT22;7907;51.368;6.730;2023-04-25T09:57:57;11.20;89.60
15615;DHT22;7907;51.368;6.730;2023-04-25T10:06:47;11.40;91.20
15615;DHT22;7907;51.368;6.730;2023-04-25T10:09:26;11.20;86.10
15615;DHT22;7907;51.368;6.730;2023-04-25T10:12:00;11.30;85.00
15615;DHT22;7907;51.368;6.730;2023-04-25T10:14:33;11.20;80.80
15615;DHT22;7907;51.368;6.730;2023-04-25T10:17:21;11.20;80.40
15615;DHT22;7907;51.368;6.730;2023-04-25T10:20:02;11.20;82.10
15615;DHT22;7907;51.368;6.730;2023-04-25T10:22:41;11.40;80.30
15615;DHT22;7907;51.368;6.730;2023-04-25T10:25:27;11.50;82.90
15615;DHT22;7907;51.368;6.730;2023-04-25T10:27:57;11.90;80.30
15615;DHT22;7907;51.368;6.730;2023-04-25T10:30:35;12.10;79.00
15615;DHT22;7907;51.368;6.730;2023-04-25T10:33:10;12.00;77.50
15615;DHT22;7907;51.368;6.730;2023-04-25T10:35:45;12.00;78.60
15615;DHT22;7907;51.368;6.730;2023-04-25T10:38:19;12.10;80.60
15615;DHT22;7907;51.368;6.730;2023-04-25T10:43:35;11.80;79.60
15615;DHT22;7907;51.368;6.730;2023-04-25T10:46:03;11.80;79.70
15615;DHT22;7907;51.368;6.730;2023-04-25T10:48:52;12.00;83.00
15615;DHT22;7907;51.368;6.730;2023-04-25T10:51:20;12.00;80.00
15615;DHT22;7907;51.368;6.730;2023-04-25T10:53:59;12.00;81.10
15615;DHT22;7907;51.368;6.730;2023-04-25T10:56:27;12.00;80.70
15615;DHT22;7907;51.368;6.730;2023-04-25T10:59:09;12.20;80.00
15615;DHT22;7907;51.368;6.730;2023-04-25T11:01:40;12.50;86.40
15615;DHT22;7907;51.368;6.730;2023-04-25T11:04:22;12.70;81.50
15615;DHT22;7907;51.368;6.730;2023-04-25T11:07:07;12.70;78.80
15615;DHT22;7907;51.368;6.730;2023-04-25T11:09:48;12.70;76.20
15615;DHT22;7907;51.368;6.730;2023-04-25T11:12:32;12.50;75.10
15615;DHT22;7907;51.368;6.730;2023-04-25T11:15:16;12.40;78.90
15615;DHT22;7907;51.368;6.730;2023-04-25T11:18:05;12.20;80.60
15615;DHT22;7907;51.368;6.730;2023-04-25T11:20:49;12.10;84.90
15615;DHT22;7907;51.368;6.730;2023-04-25T11:23:42;12.10;92.10
15615;DHT22;7907;51.368;6.730;2023-04-25T11:29:11;12.10;91.90
15615;DHT22;7907;51.368;6.730;2023-04-25T11:31:43;11.90;91.70
15615;DHT22;7907;51.368;6.730;2023-04-25T11:34:23;11.80;93.90
15615;DHT22;7907;51.368;6.730;2023-04-25T11:37:09;11.80;96.50
15615;DHT22;7907;51.368;6.730;2023-04-25T11:42:24;11.60;96.10
15615;DHT22;7907;51.368;6.730;2023-04-25T11:44:52;11.60;97.80
15615;DHT22;7907;51.368;6.730;2023-04-25T11:47:36;11.50;99.90
15615;DHT22;7907;51.368;6.730;2023-04-25T11:50:04;11.60;99.90
15615;DHT22;7907;51.368;6.730;2023-04-25T11:52:36;11.40;99.90
15615;DHT22;7907;51.368;6.730;2023-04-25T11:55:04;11.30;99.90
15615;DHT22;7907;51.368;6.730;2023-04-25T11:57:32;11.30;99.90
15615;DHT22;7907;51.368;6.730;2023-04-25T12:00:10;10.90;99.90
15615;DHT22;7907;51.368;6.730;2023-04-25T12:02:40;10.70;99.90
15615;DHT22;7907;51.368;6.730;2023-04-25T12:05:08;10.60;99.90
15615;DHT22;7907;51.368;6.730;2023-04-25T12:07:35;10.50;99.90
15615;DHT22;7907;51.368;6.730;2023-04-25T12:10:04;10.50;99.90
15615;DHT22;7907;51.368;6.730;2023-04-25T12:12:32;10.40;99.90
15615;DHT22;7907;51.368;6.730;2023-04-25T12:15:07;10.50;99.90
15615;DHT22;7907;51.368;6.730;2023-04-25T12:17:36;10.60;99.90
15615;DHT22;7907;51.368;6.730;2023-04-25T12:20:08;10.60;99.90
15615;DHT22;7907;51.368;6.730;2023-04-25T12:22:35;10.70;99.90
15615;DHT22;7907;51.368;6.730;2023-04-25T12:25:03;10.80;99.90
15615;DHT22;7907;51.368;6.730;2023-04-25T12:27:32;10.80;99.90
15615;DHT22;7907;51.368;6.730;2023-04-25T12:29:59;10.80;99.90
15615;DHT22;7907;51.368;6.730;2023-04-25T12:32:27;10.90;99.90
15615;DHT22;7907;51.368;6.730;2023-04-25T12:34:58;11.10;99.90
15615;DHT22;7907;51.368;6.730;2023-04-25T12:37:26;11.20;99.90
15615;DHT22;7907;51.368;6.730;2023-04-25T12:39:56;11.40;99.90
15615;DHT22;7907;51.368;6.730;2023-04-25T12:42:31;11.60;99.90
15615;DHT22;7907;51.368;6.730;2023-04-25T12:45:01;11.80;99.90
15615;DHT22;7907;51.368;6.730;2023-04-25T12:47:31;12.00;99.90
15615;DHT22;7907;51.368;6.730;2023-04-25T12:50:03;12.30;99.90
15615;DHT22;7907;51.368;6.730;2023-04-25T12:52:34;12.60;99.90
15615;DHT22;7907;51.368;6.730;2023-04-25T12:55:04;12.70;95.30
15615;DHT22;7907;51.368;6.730;2023-04-25T12:57:32;12.70;97.10
15615;DHT22;7907;51.368;6.730;2023-04-25T12:59:59;12.70;94.50
15615;DHT22;7907;51.368;6.730;2023-04-25T13:02:27;12.70;94.60
15615;DHT22;7907;51.368;6.730;2023-04-25T13:04:59;12.80;94.70
15615;DHT22;7907;51.368;6.730;2023-04-25T13:07:31;12.70;95.80
15615;DHT22;7907;51.368;6.730;2023-04-25T13:09:58;12.80;94.50
15615;DHT22;7907;51.368;6.730;2023-04-25T13:12:28;13.00;94.70
15615;DHT22;7907;51.368;6.730;2023-04-25T13:14:58;13.40;93.20
15615;DHT22;7907;51.368;6.730;2023-04-25T13:17:27;13.70;90.10
15615;DHT22;7907;51.368;6.730;2023-04-25T13:19:57;13.50;90.70
15615;DHT22;7907;51.368;6.730;2023-04-25T13:22:24;13.30;90.10
15615;DHT22;7907;51.368;6.730;2023-04-25T13:24:54;13.00;89.90
15615;DHT22;7907;51.368;6.730;2023-04-25T13:32:59;12.50;99.10
15615;DHT22;7907;51.368;6.730;2023-04-25T13:35:50;12.50;99.20
15615;DHT22;7907;51.368;6.730;2023-04-25T13:38:56;12.60;99.40
15615;DHT22;7907;51.368;6.730;2023-04-25T13:44:28;12.40;96.00
15615;DHT22;7907;51.368;6.730;2023-04-25T13:47:01;12.30;96.50
15615;DHT22;7907;51.368;6.730;2023-04-25T13:49:37;12.20;97.30
15615;DHT22;7907;51.368;6.730;2023-04-25T13:52:07;12.20;96.70
15615;DHT22;7907;51.368;6.730;2023-04-25T13:54:34;12.30;95.70
15615;DHT22;7907;51.368;6.730;2023-04-25T13:57:04;12.60;93.20
15615;DHT22;7907;51.368;6.730;2023-04-25T13:59:34;12.60;90.00
15615;DHT22;7907;51.368;6.730;2023-04-25T14:02:01;12.70;90.10
15615;DHT22;7907;51.368;6.730;2023-04-25T14:04:43;12.70;84.40
15615;DHT22;7907;51.368;6.730;2023-04-25T14:07:16;12.50;84.40
15615;DHT22;7907;51.368;6.730;2023-04-25T14:09:52;12.60;84.60
15615;DHT22;7907;51.368;6.730;2023-04-25T14:12:24;12.50;83.50
15615;DHT22;7907;51.368;6.730;2023-04-25T14:17:50;12.40;84.10
15615;DHT22;7907;51.368;6.730;2023-04-25T14:20:31;12.40;84.20
15615;DHT22;7907;51.368;6.730;2023-04-25T14:23:00;12.30;85.40
15615;DHT22;7907;51.368;6.730;2023-04-25T14:25:30;12.30;83.70
15615;DHT22;7907;51.368;6.730;2023-04-25T14:28:11;12.80;84.10
15615;DHT22;7907;51.368;6.730;2023-04-25T14:30:51;13.80;79.30
15615;DHT22;7907;51.368;6.730;2023-04-25T14:33:37;14.90;75.90
15615;DHT22;7907;51.368;6.730;2023-04-25T14:39:28;16.00;69.60
15615;DHT22;7907;51.368;6.730;2023-04-25T14:41:51;15.80;66.40
15615;DHT22;7907;51.368;6.730;2023-04-25T14:47:10;15.30;67.10
15615;DHT22;7907;51.368;6.730;2023-04-25T14:49:52;15.10;66.00
15615;DHT22;7907;51.368;6.730;2023-04-25T14:52:29;14.60;67.60
15615;DHT22;7907;51.368;6.730;2023-04-25T14:54:57;13.90;69.90
15615;DHT22;7907;51.368;6.730;2023-04-25T14:57:28;13.30;71.00
15615;DHT22;7907;51.368;6.730;2023-04-25T15:00:02;12.90;71.50
15615;DHT22;7907;51.368;6.730;2023-04-25T15:02:35;12.60;73.70
15615;DHT22;7907;51.368;6.730;2023-04-25T15:05:08;12.50;74.80
15615;DHT22;7907;51.368;6.730;2023-04-25T15:07:35;12.50;75.70
15615;DHT22;7907;51.368;6.730;2023-04-25T15:10:07;12.50;76.20
15615;DHT22;7907;51.368;6.730;2023-04-25T15:12:38;12.50;77.10
15615;DHT22;7907;51.368;6.730;2023-04-25T15:15:09;13.00;76.60
15615;DHT22;7907;51.368;6.730;2023-04-25T15:17:53;13.70;74.70
15615;DHT22;7907;51.368;6.730;2023-04-25T15:20:25;14.00;72.70
15615;DHT22;7907;51.368;6.730;2023-04-25T15:22:53;13.90;71.20
15615;DHT22;7907;51.368;6.730;2023-04-25T15:25:33;13.70;70.70
15615;DHT22;7907;51.368;6.730;2023-04-25T15:28:00;13.40;71.90
15615;DHT22;7907;51.368;6.730;2023-04-25T15:30:48;13.10;71.60
15615;DHT22;7907;51.368;6.730;2023-04-25T15:33:22;12.80;72.90
15615;DHT22;7907;51.368;6.730;2023-04-25T15:36:07;12.70;73.90
15615;DHT22;7907;51.368;6.730;2023-04-25T15:38:49;12.40;71.80
15615;DHT22;7907;51.368;6.730;2023-04-25T15:42:04;12.20;72.30
15615;DHT22;7907;51.368;6.730;2023-04-25T15:44:28;12.10;73.40
15615;DHT22;7907;51.368;6.730;2023-04-25T15:47:18;11.90;73.90
15615;DHT22;7907;51.368;6.730;2023-04-25T15:50:24;11.80;74.10
15615;DHT22;7907;51.368;6.730;2023-04-25T15:58:47;11.50;75.50
15615;DHT22;7907;51.368;6.730;2023-04-25T16:01:23;11.50;75.70
15615;DHT22;7907;51.368;6.730;2023-04-25T16:03:57;11.70;78.10
15615;DHT22;7907;51.368;6.730;2023-04-25T16:06:42;12.30;75.80
15615;DHT22;7907;51.368;6.730;2023-04-25T16:15:05;13.00;71.70
15615;DHT22;7907;51.368;6.730;2023-04-25T16:18:08;12.70;68.90
15615;DHT22;7907;51.368;6.730;2023-04-25T16:20:39;12.50;69.70
15615;DHT22;7907;51.368;6.730;2023-04-25T16:24:00;12.30;70.50
15615;DHT22;7907;51.368;6.730;2023-04-25T16:26:21;12.10;72.00
15615;DHT22;7907;51.368;6.730;2023-04-25T16:32:11;11.70;73.00
15615;DHT22;7907;51.368;6.730;2023-04-25T16:35:04;11.50;72.70
15615;DHT22;7907;51.368;6.730;2023-04-25T16:37:48;11.50;73.10
15615;DHT22;7907;51.368;6.730;2023-04-25T16:40:36;11.50;71.10
15615;DHT22;7907;51.368;6.730;2023-04-25T16:43:13;11.40;71.40
15615;DHT22;7907;51.368;6.730;2023-04-25T16:57:22;11.20;72.80
15615;DHT22;7907;51.368;6.730;2023-04-25T17:01:17;11.10;73.30
15615;DHT22;7907;51.368;6.730;2023-04-25T17:09:29;10.90;74.30
15615;DHT22;7907;51.368;6.730;2023-04-25T17:52:54;10.70;76.40
15615;DHT22;7907;51.368;6.730;2023-04-25T17:56:00;10.60;74.50
15615;DHT22;7907;51.368;6.730;2023-04-25T18:01:44;10.30;74.00
15615;DHT22;7907;51.368;6.730;2023-04-25T18:04:25;10.30;75.20
15615;DHT22;7907;51.368;6.730;2023-04-25T18:44:15;9.50;99.90
15615;DHT22;7907;51.368;6.730;2023-04-25T18:46:43;9.50;99.90
15615;DHT22;7907;51.368;6.730;2023-04-25T18:49:27;9.50;99.90
15615;DHT22;7907;51.368;6.730;2023-04-25T18:52:07;9.40;99.90
15615;DHT22;7907;51.368;6.730;2023-04-25T18:54:39;9.30;99.90
15615;DHT22;7907;51.368;6.730;2023-04-25T18:57:35;9.30;99.90
15615;DHT22;7907;51.368;6.730;2023-04-25T19:03:05;9.20;99.90
15615;DHT22;7907;51.368;6.730;2023-04-25T19:05:33;9.20;99.90
15615;DHT22;7907;51.368;6.730;2023-04-25T19:08:09;9.10;99.90
15615;DHT22;7907;51.368;6.730;2023-04-25T19:10:52;9.10;99.90
15615;DHT22;7907;51.368;6.730;2023-04-25T19:13:19;9.00;99.90
15615;DHT22;7907;51.368;6.730;2023-04-25T19:15:48;9.00;99.90
15615;DHT22;7907;51.368;6.730;2023-04-25T19:18:35;9.00;99.90
15615;DHT22;7907;51.368;6.730;2023-04-25T19:21:12;8.90;99.90
15615;DHT22;7907;51.368;6.730;2023-04-25T19:30:22;8.70;99.90
15615;DHT22;7907;51.368;6.730;2023-04-25T19:42:32;8.60;99.90
15615;DHT22;7907;51.368;6.730;2023-04-25T19:46:30;8.50;99.90
15615;DHT22;7907;51.368;6.730;2023-04-25T19:48:23;8.50;99.90
15615;DHT22;7907;51.368;6.730;2023-04-25T19:50:55;8.50;99.90
15615;DHT22;7907;51.368;6.730;2023-04-25T19:53:29;8.40;99.90
15615;DHT22;7907;51.368;6.730;2023-04-25T20:11:05;8.20;99.90
15615;DHT22;7907;51.368;6.730;2023-04-25T20:13:42;8.10;99.90
15615;DHT22;7907;51.368;6.730;2023-04-25T20:16:29;8.10;99.90
15615;DHT22;7907;51.368;6.730;2023-04-25T20:19:08;8.10;99.90
15615;DHT22;7907;51.368;6.730;2023-04-25T20:21:54;8.00;99.90
15615;DHT22;7907;51.368;6.730;2023-04-25T20:24:40;8.00;99.90
15615;DHT22;7907;51.368;6.730;2023-04-25T21:02:57;7.60;99.90
15615;DHT22;7907;51.368;6.730;2023-04-25T21:28:04;7.20;99.90
15615;DHT22;7907;51.368;6.730;2023-04-25T21:30:33;7.20;99.90
15615;DHT22;7907;51.368;6.730;2023-04-25T21:33:14;7.20;99.90
15615;DHT22;7907;51.368;6.730;2023-04-25T21:49:19;7.00;99.90
15615;DHT22;7907;51.368;6.730;2023-04-25T21:51:57;7.00;99.90
15615;DHT22;7907;51.368;6.730;2023-04-25T22:00:53;6.90;99.90
15615;DHT22;7907;51.368;6.730;2023-04-25T22:03:38;6.90;99.90
15615;DHT22;7907;51.368;6.730;2023-04-25T22:40:25;6.50;99.90
15615;DHT22;7907;51.368;6.730;2023-04-25T22:43:17;6.40;99.90
15615;DHT22;7907;51.368;6.730;2023-04-25T22:49:00;6.30;99.90
15615;DHT22;7907;51.368;6.730;2023-04-25T22:52:05;6.30;99.90
15615;DHT22;7907;51.368;6.730;2023-04-25T22:54:54;6.20;99.90
15615;DHT22;7907;51.368;6.730;2023-04-25T23:14:29;6.00;99.90
15615;DHT22;7907;51.368;6.730;2023-04-25T23:18:51;5.90;99.90
